createdAt,value
2022-10-06T00:00:46.238Z,11.17
2022-10-06T00:03:13.253Z,5.23
2022-10-06T00:05:40.023Z,4.90
2022-10-06T00:08:10.061Z,5.33
2022-10-06T00:10:37.049Z,10.27
2022-10-06T00:13:03.860Z,9.63
2022-10-06T00:15:32.380Z,5.23
2022-10-06T00:17:59.744Z,4.60
2022-10-06T00:20:29.088Z,7.87
2022-10-06T00:22:58.962Z,9.53
2022-10-06T00:25:26.635Z,11.47
2022-10-06T00:27:53.714Z,5.93
2022-10-06T00:30:24.040Z,10.03
2022-10-06T00:33:03.562Z,10.10
2022-10-06T00:35:33.712Z,11.23
2022-10-06T00:38:01.578Z,8.23
2022-10-06T00:40:29.554Z,10.47
2022-10-06T00:43:03.557Z,11.23
2022-10-06T00:45:39.440Z,10.23
2022-10-06T00:48:15.739Z,9.03
2022-10-06T00:50:42.953Z,8.23
2022-10-06T00:53:10.206Z,8.27
2022-10-06T00:55:37.042Z,8.77
2022-10-06T00:58:05.612Z,5.97
2022-10-06T01:00:33.166Z,14.93
2022-10-06T01:03:20.601Z,11.57
2022-10-06T01:05:49.770Z,9.37
2022-10-06T01:08:17.194Z,9.57
2022-10-06T01:10:46.396Z,8.13
2022-10-06T01:13:14.252Z,9.50
2022-10-06T01:15:48.012Z,11.17
2022-10-06T01:18:21.232Z,6.43
2022-10-06T01:21:00.741Z,9.90
2022-10-06T01:23:27.821Z,10.53
2022-10-06T01:25:55.024Z,13.47
2022-10-06T01:28:22.216Z,10.40
2022-10-06T01:30:52.830Z,13.83
2022-10-06T01:33:21.515Z,11.50
2022-10-06T01:35:50.664Z,12.60
2022-10-06T01:38:22.004Z,11.00
2022-10-06T01:40:51.117Z,6.33
2022-10-06T01:43:17.839Z,6.87
2022-10-06T01:45:44.570Z,11.57
2022-10-06T01:48:11.330Z,10.57
2022-10-06T01:50:40.088Z,8.17
2022-10-06T01:53:07.189Z,8.43
2022-10-06T01:55:34.111Z,7.63
2022-10-06T01:58:00.861Z,9.30
2022-10-06T02:00:27.778Z,11.70
2022-10-06T02:02:57.945Z,9.40
2022-10-06T02:05:24.862Z,9.40
2022-10-06T02:07:51.673Z,5.37
2022-10-06T02:10:18.625Z,9.47
2022-10-06T02:12:45.345Z,10.30
2022-10-06T02:15:12.172Z,7.90
2022-10-06T02:17:38.947Z,7.13
2022-10-06T02:20:06.727Z,13.47
2022-10-06T02:22:39.211Z,7.43
2022-10-06T02:25:06.915Z,8.13
2022-10-06T02:27:33.861Z,6.50
2022-10-06T02:30:01.366Z,11.97
2022-10-06T02:32:36.272Z,9.33
2022-10-06T02:35:03.816Z,9.93
2022-10-06T02:37:30.768Z,15.47
2022-10-06T02:39:57.580Z,4.67
2022-10-06T02:42:24.445Z,10.80
2022-10-06T02:44:52.267Z,12.13
2022-10-06T02:47:19.729Z,9.67
2022-10-06T02:49:46.570Z,9.63
2022-10-06T02:52:15.599Z,8.90
2022-10-06T02:54:42.681Z,13.07
2022-10-06T02:57:09.505Z,8.87
2022-10-06T02:59:36.571Z,7.30
2022-10-06T03:02:03.755Z,9.93
2022-10-06T03:04:30.758Z,7.67
2022-10-06T03:06:57.591Z,12.30
2022-10-06T03:09:25.159Z,8.67
2022-10-06T03:11:52.182Z,10.27
2022-10-06T03:14:21.910Z,8.97
2022-10-06T03:16:51.590Z,6.17
2022-10-06T03:19:18.413Z,14.27
2022-10-06T03:21:45.986Z,11.40
2022-10-06T03:24:12.846Z,12.07
2022-10-06T03:26:42.438Z,8.17
2022-10-06T03:29:11.732Z,12.00
2022-10-06T03:31:40.119Z,8.67
2022-10-06T03:34:08.221Z,10.37
2022-10-06T03:36:35.932Z,10.13
2022-10-06T03:39:05.181Z,10.43
2022-10-06T03:41:34.340Z,9.60
2022-10-06T03:44:01.792Z,10.73
2022-10-06T03:46:30.921Z,13.17
2022-10-06T03:48:59.148Z,9.63
2022-10-06T03:51:31.574Z,10.67
2022-10-06T03:53:59.315Z,7.43
2022-10-06T03:56:33.465Z,6.67
2022-10-06T03:59:02.589Z,12.97
2022-10-06T04:01:37.066Z,13.30
2022-10-06T04:04:05.204Z,12.43
2022-10-06T04:06:34.555Z,11.33
2022-10-06T04:09:01.866Z,8.60
2022-10-06T04:11:31.380Z,11.43
2022-10-06T04:14:06.418Z,10.23
2022-10-06T04:16:36.885Z,14.67
2022-10-06T04:19:05.718Z,13.23
2022-10-06T04:21:36.814Z,9.57
2022-10-06T04:24:04.960Z,12.63
2022-10-06T04:26:34.379Z,11.67
2022-10-06T04:29:01.334Z,8.23
2022-10-06T04:31:40.955Z,8.83
2022-10-06T04:34:09.973Z,10.13
2022-10-06T04:36:40.847Z,8.53
2022-10-06T04:39:10.595Z,9.83
2022-10-06T04:41:40.048Z,14.77
2022-10-06T04:44:07.688Z,13.13
2022-10-06T04:46:43.281Z,6.83
2022-10-06T04:49:16.191Z,9.73
2022-10-06T04:51:45.705Z,11.50
2022-10-06T04:54:12.386Z,13.00
2022-10-06T04:56:39.096Z,7.87
2022-10-06T04:59:05.802Z,11.97
2022-10-06T05:01:35.575Z,9.50
2022-10-06T05:04:03.674Z,17.80
2022-10-06T05:06:41.571Z,14.20
2022-10-06T05:09:15.907Z,8.60
2022-10-06T05:11:42.858Z,11.70
2022-10-06T05:14:09.713Z,14.83
2022-10-06T05:16:38.248Z,13.47
2022-10-06T05:19:05.587Z,9.37
2022-10-06T05:21:33.223Z,11.93
2022-10-06T05:24:00.388Z,11.77
2022-10-06T05:26:30.924Z,12.17
2022-10-06T05:28:58.261Z,16.53
2022-10-06T05:31:27.973Z,13.07
2022-10-06T05:33:55.936Z,15.20
2022-10-06T05:36:25.116Z,13.97
2022-10-06T05:38:52.293Z,14.90
2022-10-06T05:41:25.081Z,10.23
2022-10-06T05:43:53.027Z,12.00
2022-10-06T05:46:27.633Z,9.97
2022-10-06T05:49:01.981Z,8.87
2022-10-06T05:51:31.489Z,12.47
2022-10-06T05:53:59.210Z,12.33
2022-10-06T05:56:29.007Z,15.77
2022-10-06T05:58:57.309Z,12.73
2022-10-06T06:01:30.155Z,13.27
2022-10-06T06:04:06.569Z,10.70
2022-10-06T06:06:42.438Z,12.40
2022-10-06T06:09:20.608Z,12.90
2022-10-06T06:11:49.636Z,12.40
2022-10-06T06:14:18.518Z,10.90
2022-10-06T06:16:46.557Z,8.63
2022-10-06T06:19:14.347Z,16.17
2022-10-06T06:21:41.303Z,10.53
2022-10-06T06:24:08.176Z,12.87
2022-10-06T06:26:37.302Z,13.37
2022-10-06T06:29:05.503Z,8.87
2022-10-06T06:31:40.036Z,14.20
2022-10-06T06:34:07.704Z,13.87
2022-10-06T06:36:40.919Z,12.93
2022-10-06T06:39:12.948Z,16.30
2022-10-06T06:41:42.362Z,15.50
2022-10-06T06:44:11.421Z,21.60
2022-10-06T06:46:43.527Z,19.47
2022-10-06T06:49:11.931Z,11.03
2022-10-06T06:51:40.963Z,13.93
2022-10-06T06:54:09.797Z,15.07
2022-10-06T06:56:37.280Z,15.73
2022-10-06T06:59:13.419Z,14.07
2022-10-06T07:01:47.115Z,14.77
2022-10-06T07:04:16.121Z,16.27
2022-10-06T07:06:53.428Z,15.40
2022-10-06T07:09:20.917Z,13.27
2022-10-06T07:11:47.675Z,13.40
2022-10-06T07:14:14.514Z,12.57
2022-10-06T07:17:02.791Z,9.17
2022-10-06T07:19:38.561Z,19.93
2022-10-06T07:22:26.512Z,15.27
2022-10-06T07:25:08.001Z,15.17
2022-10-06T07:27:43.528Z,18.07
2022-10-06T07:30:19.070Z,13.30
2022-10-06T07:32:47.568Z,9.97
2022-10-06T07:35:16.241Z,16.33
2022-10-06T07:37:43.415Z,10.83
2022-10-06T07:40:10.957Z,13.97
2022-10-06T07:42:54.061Z,18.87
2022-10-06T07:45:38.826Z,16.47
2022-10-06T07:48:11.264Z,13.77
2022-10-06T07:50:39.820Z,14.50
2022-10-06T07:53:13.329Z,13.07
2022-10-06T07:55:41.861Z,13.10
2022-10-06T07:58:13.479Z,10.17
2022-10-06T08:00:43.944Z,13.20
2022-10-06T08:03:13.816Z,14.10
2022-10-06T08:05:42.710Z,15.30
2022-10-06T08:08:09.559Z,14.20
2022-10-06T08:10:36.365Z,14.90
2022-10-06T08:13:06.770Z,12.37
2022-10-06T08:15:34.607Z,12.77
2022-10-06T08:18:16.425Z,14.30
2022-10-06T08:20:51.747Z,11.87
2022-10-06T08:23:18.481Z,9.07
2022-10-06T08:25:56.413Z,13.03
2022-10-06T08:28:24.603Z,15.53
2022-10-06T08:30:52.467Z,14.70
2022-10-06T08:33:21.411Z,11.00
2022-10-06T08:35:48.413Z,13.03
2022-10-06T08:38:15.137Z,19.87
2022-10-06T08:40:43.982Z,16.33
2022-10-06T08:43:19.524Z,12.77
2022-10-06T08:45:47.602Z,12.37
2022-10-06T08:48:19.879Z,9.30
2022-10-06T08:51:10.882Z,7.47
2022-10-06T08:53:47.017Z,10.67
2022-10-06T08:56:27.093Z,13.47
2022-10-06T08:58:59.272Z,9.07
2022-10-06T09:01:47.919Z,8.93
2022-10-06T09:04:28.071Z,7.73
2022-10-06T09:07:07.807Z,5.77
2022-10-06T09:09:46.918Z,6.83
2022-10-06T09:12:32.176Z,8.70
2022-10-06T09:15:28.718Z,9.00
2022-10-06T09:18:02.017Z,9.23
2022-10-06T09:21:01.931Z,9.40
2022-10-06T09:23:49.441Z,8.37
2022-10-06T09:26:28.373Z,7.53
2022-10-06T09:28:56.976Z,8.97
2022-10-06T09:31:39.137Z,9.97
2022-10-06T09:34:23.434Z,11.33
2022-10-06T09:37:16.819Z,12.37
2022-10-06T09:39:50.354Z,6.80
2022-10-06T09:42:35.766Z,8.87
2022-10-06T09:45:07.921Z,8.77
2022-10-06T09:47:36.598Z,10.43
2022-10-06T09:50:06.272Z,7.80
2022-10-06T09:52:33.116Z,12.60
2022-10-06T09:55:15.223Z,6.33
2022-10-06T09:57:58.383Z,7.50
2022-10-06T10:00:34.833Z,9.57
2022-10-06T10:03:03.075Z,11.80
2022-10-06T10:05:32.540Z,14.37
2022-10-06T10:08:13.774Z,5.13
2022-10-06T10:10:41.115Z,9.70
2022-10-06T10:13:25.753Z,10.43
2022-10-06T10:15:59.791Z,7.23
2022-10-06T10:18:30.259Z,9.60
2022-10-06T10:20:58.509Z,7.67
2022-10-06T10:23:31.742Z,8.57
2022-10-06T10:26:35.868Z,7.67
2022-10-06T10:29:22.364Z,8.83
2022-10-06T10:32:12.314Z,10.20
2022-10-06T10:35:03.714Z,8.53
2022-10-06T10:37:55.503Z,5.50
2022-10-06T10:40:32.919Z,7.20
2022-10-06T10:43:05.379Z,9.53
2022-10-06T10:45:34.381Z,6.70
2022-10-06T10:48:07.017Z,5.60
2022-10-06T10:50:43.030Z,6.50
2022-10-06T10:53:50.779Z,5.70
2022-10-06T10:56:21.253Z,5.27
2022-10-06T10:58:52.791Z,7.73
2022-10-06T11:01:42.239Z,7.83
2022-10-06T11:04:14.040Z,4.77
2022-10-06T11:06:55.946Z,6.17
2022-10-06T11:09:29.724Z,6.90
2022-10-06T11:12:14.757Z,7.80
2022-10-06T11:14:55.489Z,3.67
2022-10-06T11:17:33.148Z,10.03
2022-10-06T11:20:03.699Z,6.83
2022-10-06T11:23:18.733Z,9.27
2022-10-06T11:26:04.995Z,4.23
2022-10-06T11:28:43.189Z,5.53
2022-10-06T11:31:42.332Z,5.53
2022-10-06T11:34:10.177Z,9.70
2022-10-06T11:36:54.887Z,5.33
2022-10-06T11:39:45.466Z,8.73
2022-10-06T11:42:23.371Z,9.30
2022-10-06T11:45:13.948Z,5.80
2022-10-06T11:47:53.036Z,4.97
2022-10-06T11:50:36.660Z,5.57
2022-10-06T11:53:26.130Z,5.20
2022-10-06T11:56:17.874Z,7.13
2022-10-06T11:58:56.702Z,6.03
2022-10-06T12:01:32.650Z,7.20
2022-10-06T12:04:09.815Z,7.10
2022-10-06T12:06:48.326Z,8.50
2022-10-06T12:09:32.957Z,6.13
2022-10-06T12:12:00.739Z,6.70
2022-10-06T12:17:59.167Z,7.37
2022-10-06T12:20:53.792Z,5.43
2022-10-06T12:23:31.173Z,3.97
2022-10-06T12:26:07.524Z,5.43
2022-10-06T12:28:59.622Z,6.07
2022-10-06T12:31:40.061Z,4.77
2022-10-06T12:34:45.471Z,4.03
2022-10-06T12:37:38.141Z,3.23
2022-10-06T12:40:44.163Z,4.50
2022-10-06T12:43:14.389Z,5.40
2022-10-06T12:45:56.441Z,8.67
2022-10-06T12:48:44.235Z,5.43
2022-10-06T12:51:13.815Z,3.60
2022-10-06T12:54:04.814Z,5.23
2022-10-06T12:56:35.136Z,4.93
2022-10-06T12:59:21.734Z,6.07
2022-10-06T13:02:18.154Z,5.90
2022-10-06T13:05:03.284Z,3.63
2022-10-06T13:07:33.214Z,6.30
2022-10-06T13:10:15.311Z,4.90
2022-10-06T13:12:47.231Z,5.43
2022-10-06T13:15:24.072Z,4.10
2022-10-06T13:18:07.685Z,3.80
2022-10-06T13:20:40.356Z,4.30
2022-10-06T13:23:10.318Z,7.00
2022-10-06T13:25:48.296Z,6.23
2022-10-06T13:28:34.135Z,7.33
2022-10-06T13:31:19.088Z,6.57
2022-10-06T13:33:49.743Z,7.60
2022-10-06T13:36:17.367Z,3.97
2022-10-06T13:38:44.109Z,2.73
2022-10-06T13:41:14.292Z,8.30
2022-10-06T13:43:52.677Z,6.67
2022-10-06T13:46:25.878Z,4.93
2022-10-06T13:49:10.543Z,3.37
2022-10-06T13:51:37.207Z,4.93
2022-10-06T13:54:24.026Z,4.10
2022-10-06T13:56:50.835Z,4.07
2022-10-06T13:59:32.628Z,7.17
2022-10-06T14:02:15.212Z,4.30
2022-10-06T14:04:42.167Z,2.97
2022-10-06T14:07:15.404Z,6.57
2022-10-06T14:09:49.808Z,4.77
2022-10-06T14:12:20.548Z,2.27
2022-10-06T14:14:50.152Z,3.77
2022-10-06T14:17:27.544Z,7.90
2022-10-06T14:19:54.440Z,4.63
2022-10-06T14:22:34.278Z,5.53
2022-10-06T14:25:02.376Z,6.03
2022-10-06T14:27:29.028Z,4.73
2022-10-06T14:29:56.979Z,3.17
2022-10-06T14:32:25.394Z,4.27
2022-10-06T14:34:52.065Z,3.67
2022-10-06T14:37:18.862Z,5.67
2022-10-06T14:39:45.842Z,7.40
2022-10-06T14:42:15.382Z,6.70
2022-10-06T14:44:43.143Z,3.93
2022-10-06T14:47:13.399Z,5.70
2022-10-06T14:49:40.820Z,8.27
2022-10-06T14:52:10.405Z,6.03
2022-10-06T14:54:37.822Z,5.07
2022-10-06T14:57:05.043Z,5.73
2022-10-06T14:59:31.924Z,5.90
2022-10-06T15:01:58.763Z,4.33
2022-10-06T15:04:27.589Z,7.67
2022-10-06T15:07:12.859Z,10.27
2022-10-06T15:09:39.569Z,4.00
2022-10-06T15:12:06.806Z,3.77
2022-10-06T15:14:39.564Z,3.70
2022-10-06T15:17:06.511Z,3.73
2022-10-06T15:19:34.334Z,5.33
2022-10-06T15:22:01.398Z,5.83
2022-10-06T15:24:28.111Z,6.83
2022-10-06T15:27:14.151Z,6.67
2022-10-06T15:29:42.578Z,6.27
2022-10-06T15:32:09.545Z,6.27
2022-10-06T15:34:41.385Z,6.53
2022-10-06T15:37:08.225Z,6.63
2022-10-06T15:39:36.667Z,5.07
2022-10-06T15:42:04.106Z,4.43
2022-10-06T15:44:34.797Z,5.73
2022-10-06T15:47:03.040Z,4.93
2022-10-06T15:49:30.411Z,6.07
2022-10-06T15:51:59.745Z,7.27
2022-10-06T15:54:40.805Z,5.10
2022-10-06T15:57:09.933Z,4.03
2022-10-06T15:59:37.444Z,4.43
2022-10-06T16:02:08.756Z,6.73
2022-10-06T16:04:46.596Z,6.10
2022-10-06T16:07:16.778Z,6.93
2022-10-06T16:09:45.611Z,4.00
2022-10-06T16:12:17.617Z,6.47
2022-10-06T16:14:45.339Z,3.07
2022-10-06T16:17:12.973Z,4.63
2022-10-06T16:19:40.542Z,5.47
2022-10-06T16:22:09.970Z,4.77
2022-10-06T16:24:36.659Z,2.83
2022-10-06T16:27:03.509Z,3.03
2022-10-06T16:29:30.449Z,5.50
2022-10-06T16:31:59.848Z,8.47
2022-10-06T16:34:26.591Z,5.00
2022-10-06T16:36:53.284Z,6.07
2022-10-06T16:39:22.208Z,8.97
2022-10-06T16:41:50.027Z,5.57
2022-10-06T16:44:17.289Z,5.10
2022-10-06T16:46:45.295Z,4.20
2022-10-06T16:49:12.557Z,5.90
2022-10-06T16:51:44.073Z,5.80
2022-10-06T16:54:13.191Z,7.67
2022-10-06T16:56:45.668Z,5.87
2022-10-06T16:59:19.245Z,4.17
2022-10-06T17:01:46.948Z,5.10
2022-10-06T17:04:19.967Z,5.43
2022-10-06T17:06:53.403Z,7.23
2022-10-06T17:09:25.644Z,7.03
2022-10-06T17:12:00.852Z,4.47
2022-10-06T17:14:30.573Z,7.17
2022-10-06T17:16:58.391Z,6.37
2022-10-06T17:19:28.358Z,5.73
2022-10-06T17:21:59.099Z,7.10
2022-10-06T17:24:32.622Z,4.57
2022-10-06T17:26:59.421Z,6.97
2022-10-06T17:29:27.318Z,6.27
2022-10-06T17:31:58.791Z,6.80
2022-10-06T17:34:31.702Z,5.17
2022-10-06T17:37:01.152Z,6.73
2022-10-06T17:39:27.901Z,7.70
2022-10-06T17:41:54.717Z,6.53
2022-10-06T17:44:28.485Z,5.80
2022-10-06T17:46:57.832Z,6.90
2022-10-06T17:49:25.742Z,10.23
2022-10-06T17:51:54.137Z,11.07
2022-10-06T17:54:23.563Z,7.60
2022-10-06T17:56:53.161Z,9.13
2022-10-06T17:59:28.071Z,5.77
2022-10-06T18:01:56.836Z,7.60
2022-10-06T18:04:24.008Z,6.93
2022-10-06T18:06:53.024Z,6.37
2022-10-06T18:09:20.316Z,4.90
2022-10-06T18:11:55.942Z,5.77
2022-10-06T18:14:32.365Z,5.63
2022-10-06T18:17:01.785Z,6.80
2022-10-06T18:19:31.036Z,6.60
2022-10-06T18:22:00.477Z,6.13
2022-10-06T18:24:29.496Z,7.50
2022-10-06T18:26:58.710Z,9.83
2022-10-06T18:29:29.047Z,10.60
2022-10-06T18:32:09.127Z,7.20
2022-10-06T18:37:29.485Z,5.33
2022-10-06T18:39:56.992Z,7.73
2022-10-06T18:42:24.159Z,6.10
2022-10-06T18:45:09.375Z,10.33
2022-10-06T18:47:54.695Z,6.10
2022-10-06T18:50:21.515Z,7.87
2022-10-06T18:52:50.860Z,6.27
2022-10-06T18:55:17.738Z,8.73
2022-10-06T18:57:48.178Z,8.47
2022-10-06T19:00:15.339Z,8.10
2022-10-06T19:02:48.309Z,5.77
2022-10-06T19:05:17.367Z,9.80
2022-10-06T19:07:44.947Z,9.93
2022-10-06T19:10:12.228Z,8.27
2022-10-06T19:12:39.346Z,7.50
2022-10-06T19:15:06.532Z,7.63
2022-10-06T19:17:33.885Z,8.90
2022-10-06T19:20:00.668Z,7.00
2022-10-06T19:22:28.707Z,8.70
2022-10-06T19:24:55.450Z,7.13
2022-10-06T19:27:28.949Z,13.17
2022-10-06T19:29:56.900Z,9.50
2022-10-06T19:32:26.634Z,7.17
2022-10-06T19:34:57.925Z,5.20
2022-10-06T19:37:28.993Z,8.13
2022-10-06T19:39:55.748Z,7.00
2022-10-06T19:42:41.556Z,8.53
2022-10-06T19:45:09.765Z,10.80
2022-10-06T19:47:43.375Z,10.10
2022-10-06T19:50:12.591Z,9.47
2022-10-06T19:52:41.085Z,10.63
2022-10-06T19:55:07.957Z,9.23
2022-10-06T19:57:37.525Z,9.13
2022-10-06T20:00:06.228Z,8.27
2022-10-06T20:02:33.008Z,8.17
2022-10-06T20:04:59.725Z,7.93
2022-10-06T20:07:27.962Z,9.70
2022-10-06T20:09:57.695Z,9.03
2022-10-06T20:12:25.499Z,11.90
2022-10-06T20:14:53.591Z,8.07
2022-10-06T20:17:21.097Z,8.77
2022-10-06T20:19:48.396Z,9.40
2022-10-06T20:22:15.256Z,8.30
2022-10-06T20:24:42.131Z,6.40
2022-10-06T20:27:09.057Z,8.90
2022-10-06T20:29:35.863Z,10.27
2022-10-06T20:32:05.159Z,16.80
2022-10-06T20:34:32.912Z,8.80
2022-10-06T20:37:04.954Z,10.63
2022-10-06T20:39:51.546Z,9.60
2022-10-06T20:42:19.823Z,10.20
2022-10-06T20:44:46.700Z,6.77
2022-10-06T20:47:14.257Z,6.93
2022-10-06T20:49:43.943Z,9.27
2022-10-06T20:52:14.289Z,8.07
2022-10-06T20:54:41.306Z,6.10
2022-10-06T20:57:09.383Z,9.40
2022-10-06T20:59:36.348Z,5.03
2022-10-06T21:02:06.897Z,9.50
2022-10-06T21:04:34.907Z,8.20
2022-10-06T21:07:07.637Z,7.60
2022-10-06T21:09:34.794Z,7.30
2022-10-06T21:12:05.128Z,9.50
2022-10-06T21:14:34.083Z,5.67
2022-10-06T21:17:00.914Z,8.60
2022-10-06T21:19:29.997Z,10.10
2022-10-06T21:21:56.831Z,10.30
2022-10-06T21:24:23.867Z,8.03
2022-10-06T21:26:52.686Z,9.13
2022-10-06T21:29:20.498Z,8.03
2022-10-06T21:31:47.668Z,6.77
2022-10-06T21:34:14.672Z,13.53
2022-10-06T21:36:43.445Z,10.10
2022-10-06T21:39:11.371Z,7.27
2022-10-06T21:41:39.609Z,8.37
2022-10-06T21:44:12.008Z,7.10
2022-10-06T21:46:46.278Z,9.13
2022-10-06T21:49:15.981Z,7.40
2022-10-06T21:51:45.805Z,8.07
2022-10-06T21:54:13.924Z,8.20
2022-10-06T21:56:41.100Z,8.07
2022-10-06T21:59:08.760Z,14.00
2022-10-06T22:01:37.656Z,7.27
2022-10-06T22:04:05.613Z,8.47
2022-10-06T22:06:34.207Z,8.73
2022-10-06T22:09:01.824Z,9.93
2022-10-06T22:11:31.447Z,10.77
2022-10-06T22:14:01.514Z,12.23
2022-10-06T22:16:30.682Z,15.13
2022-10-06T22:18:57.833Z,11.73
2022-10-06T22:21:26.949Z,7.57
2022-10-06T22:24:03.946Z,7.70
2022-10-06T22:26:32.568Z,12.60
2022-10-06T22:29:00.361Z,10.43
2022-10-06T22:31:28.257Z,9.07
2022-10-06T22:34:01.574Z,8.03
2022-10-06T22:36:28.951Z,9.47
2022-10-06T22:38:56.336Z,8.40
2022-10-06T22:41:23.957Z,12.23
2022-10-06T22:43:57.491Z,13.10
2022-10-06T22:46:30.408Z,10.07
2022-10-06T22:48:57.947Z,12.00
2022-10-06T22:51:25.268Z,14.87
2022-10-06T22:53:57.494Z,12.30
2022-10-06T22:56:30.120Z,10.57
2022-10-06T22:59:00.165Z,22.00
2022-10-06T23:01:28.578Z,12.90
2022-10-06T23:03:58.153Z,11.00
2022-10-06T23:06:25.721Z,10.57
2022-10-06T23:08:53.021Z,7.77
2022-10-06T23:11:21.416Z,9.10
2022-10-06T23:13:50.202Z,11.73
2022-10-06T23:16:18.836Z,15.17
2022-10-06T23:18:46.249Z,17.00
2022-10-06T23:21:22.374Z,8.93
2022-10-06T23:23:51.664Z,12.87
2022-10-06T23:26:20.162Z,12.13
2022-10-06T23:28:55.185Z,11.00
2022-10-06T23:31:22.659Z,17.27
2022-10-06T23:33:49.531Z,13.57
2022-10-06T23:36:17.768Z,9.63
2022-10-06T23:38:47.307Z,9.73
2022-10-06T23:41:14.828Z,7.20
2022-10-06T23:43:43.797Z,11.47
2022-10-06T23:46:11.345Z,12.73
2022-10-06T23:48:38.328Z,10.97
2022-10-06T23:51:08.139Z,7.00
2022-10-06T23:53:35.425Z,12.60
2022-10-06T23:56:02.716Z,12.57
2022-10-06T23:58:29.585Z,13.00
